createdAt,value
2022-12-11T00:00:32.277Z,1011.409756196
2022-12-11T00:01:32.331Z,1011.308164832
2022-12-11T00:02:32.419Z,1011.409756196
2022-12-11T00:03:32.278Z,1011.409756196
2022-12-11T00:04:32.280Z,1011.51134756
2022-12-11T00:05:32.275Z,1011.409756196
2022-12-11T00:06:32.622Z,1011.409756196
2022-12-11T00:07:32.257Z,1011.308164832
2022-12-11T00:08:32.286Z,1011.51134756
2022-12-11T00:09:32.266Z,1011.409756196
2022-12-11T00:10:36.224Z,1011.409756196
2022-12-11T00:11:32.270Z,1011.409756196
2022-12-11T00:12:32.267Z,1011.308164832
2022-12-11T00:13:32.265Z,1011.308164832
2022-12-11T00:14:32.288Z,1011.2404372559998
2022-12-11T00:15:32.273Z,1011.409756196
2022-12-11T00:16:32.374Z,1011.308164832
2022-12-11T00:17:32.266Z,1011.409756196
2022-12-11T00:18:32.244Z,1011.308164832
2022-12-11T00:19:32.270Z,1011.409756196
2022-12-11T00:20:32.250Z,1011.51134756
2022-12-11T00:21:32.247Z,1011.51134756
2022-12-11T00:22:32.279Z,1011.409756196
2022-12-11T00:23:32.545Z,1011.51134756
2022-12-11T00:24:32.291Z,1011.308164832
2022-12-11T00:25:32.249Z,1011.409756196
2022-12-11T00:26:32.251Z,1011.51134756
2022-12-11T00:27:32.272Z,1011.308164832
2022-12-11T00:28:32.264Z,1011.51134756
2022-12-11T00:29:32.244Z,1011.409756196
2022-12-11T00:30:32.266Z,1011.612938924
2022-12-11T00:31:32.295Z,1011.409756196
2022-12-11T00:32:37.370Z,1011.308164832
2022-12-11T00:33:32.301Z,1011.7145302880001
2022-12-11T00:34:32.255Z,1011.612938924
2022-12-11T00:35:32.264Z,1011.409756196
2022-12-11T00:36:32.276Z,1011.51134756
2022-12-11T00:37:32.373Z,1011.51134756
2022-12-11T00:38:32.256Z,1011.1388458920001
2022-12-11T00:39:32.278Z,1011.612938924
2022-12-11T00:40:32.268Z,1011.612938924
2022-12-11T00:41:32.220Z,1011.409756196
2022-12-11T00:42:32.677Z,1011.51134756
2022-12-11T00:43:32.293Z,1011.51134756
2022-12-11T00:44:32.335Z,1011.2404372559998
2022-12-11T00:45:32.313Z,1011.612938924
2022-12-11T00:46:32.248Z,1011.51134756
2022-12-11T00:47:32.408Z,1011.409756196
2022-12-11T00:48:32.275Z,1011.308164832
2022-12-11T00:49:32.401Z,1011.51134756
2022-12-11T00:50:32.264Z,1011.612938924
2022-12-11T00:51:32.293Z,1011.409756196
2022-12-11T00:52:32.282Z,1011.612938924
2022-12-11T00:53:32.264Z,1011.7145302880001
2022-12-11T00:54:32.308Z,1011.308164832
2022-12-11T00:55:32.260Z,1011.409756196
2022-12-11T00:56:32.245Z,1011.308164832
2022-12-11T00:57:32.236Z,1011.612938924
2022-12-11T00:58:32.330Z,1011.409756196
2022-12-11T00:59:32.267Z,1011.409756196
2022-12-11T01:00:32.332Z,1011.409756196
2022-12-11T01:01:32.378Z,1011.612938924
2022-12-11T01:02:32.388Z,1011.409756196
2022-12-11T01:03:32.264Z,1011.2404372559998
2022-12-11T01:04:32.267Z,1011.7145302880001
2022-12-11T01:05:32.241Z,1011.612938924
2022-12-11T01:06:32.278Z,1011.409756196
2022-12-11T01:07:32.313Z,1011.51134756
2022-12-11T01:08:38.125Z,1011.51134756
2022-12-11T01:09:32.243Z,1011.51134756
2022-12-11T01:10:32.314Z,1011.7145302880001
2022-12-11T01:11:32.398Z,1011.612938924
2022-12-11T01:12:32.265Z,1011.7145302880001
2022-12-11T01:13:32.238Z,1011.51134756
2022-12-11T01:14:32.244Z,1011.7145302880001
2022-12-11T01:15:32.278Z,1011.612938924
2022-12-11T01:16:32.303Z,1011.51134756
2022-12-11T01:17:32.247Z,1011.612938924
2022-12-11T01:18:32.634Z,1011.612938924
2022-12-11T01:19:32.271Z,1011.612938924
2022-12-11T01:20:32.282Z,1011.612938924
2022-12-11T01:21:32.270Z,1011.612938924
2022-12-11T01:22:32.267Z,1011.51134756
2022-12-11T01:23:32.305Z,1011.51134756
2022-12-11T01:24:32.252Z,1011.409756196
2022-12-11T01:25:32.245Z,1011.51134756
2022-12-11T01:26:32.223Z,1011.409756196
2022-12-11T01:27:32.334Z,1011.612938924
2022-12-11T01:28:32.384Z,1011.51134756
2022-12-11T01:29:32.272Z,1011.51134756
2022-12-11T01:30:32.347Z,1011.7145302880001
2022-12-11T01:31:32.292Z,1011.51134756
2022-12-11T01:32:32.234Z,1011.7145302880001
2022-12-11T01:33:32.291Z,1011.51134756
2022-12-11T01:34:32.411Z,1011.51134756
2022-12-11T01:35:32.272Z,1011.7145302880001
2022-12-11T01:36:32.257Z,1011.612938924
2022-12-11T01:37:32.248Z,1011.612938924
2022-12-11T01:38:32.258Z,1011.7145302880001
2022-12-11T01:39:32.298Z,1011.409756196
2022-12-11T01:40:32.350Z,1011.7145302880001
2022-12-11T01:41:32.509Z,1011.7145302880001
2022-12-11T01:42:32.386Z,1011.51134756
2022-12-11T01:43:32.427Z,1011.612938924
2022-12-11T01:44:32.418Z,1011.51134756
2022-12-11T01:45:32.427Z,1011.612938924
2022-12-11T01:46:32.483Z,1011.612938924
2022-12-11T01:47:32.436Z,1011.7145302880001
2022-12-11T01:48:32.953Z,1011.612938924
2022-12-11T01:49:32.358Z,1011.7145302880001
2022-12-11T01:50:32.294Z,1011.816121652
2022-12-11T01:51:32.264Z,1011.816121652
2022-12-11T01:52:32.257Z,1011.816121652
2022-12-11T01:53:32.248Z,1011.612938924
2022-12-11T01:54:32.222Z,1011.612938924
2022-12-11T01:55:32.292Z,1011.7145302880001
2022-12-11T01:56:32.265Z,1011.7145302880001
2022-12-11T01:57:32.249Z,1011.7145302880001
2022-12-11T01:58:32.283Z,1011.816121652
2022-12-11T01:59:32.257Z,1011.612938924
2022-12-11T02:00:32.246Z,1011.816121652
2022-12-11T02:01:32.327Z,1011.9177130160001
2022-12-11T02:02:32.365Z,1011.612938924
2022-12-11T02:03:32.298Z,1012.0193043800001
2022-12-11T02:04:32.274Z,1011.7145302880001
2022-12-11T02:05:32.266Z,1011.816121652
2022-12-11T02:06:32.256Z,1011.7145302880001
2022-12-11T02:07:32.280Z,1011.9177130160001
2022-12-11T02:08:32.241Z,1011.7145302880001
2022-12-11T02:09:32.245Z,1011.816121652
2022-12-11T02:10:32.252Z,1011.7145302880001
2022-12-11T02:11:33.124Z,1011.7145302880001
2022-12-11T02:12:36.471Z,1011.612938924
2022-12-11T02:13:40.441Z,1011.612938924
2022-12-11T02:14:44.408Z,1011.7145302880001
2022-12-11T02:15:48.464Z,1011.612938924
2022-12-11T02:16:52.453Z,1011.7145302880001
2022-12-11T02:17:56.442Z,1011.7145302880001
2022-12-11T02:19:00.431Z,1011.7145302880001
2022-12-11T02:20:04.516Z,1011.7145302880001
2022-12-11T02:21:08.447Z,1011.612938924
2022-12-11T02:22:12.436Z,1011.612938924
2022-12-11T02:23:16.408Z,1011.51134756
2022-12-11T02:24:20.424Z,1011.51134756
2022-12-11T02:25:24.457Z,1011.7145302880001
2022-12-11T02:26:28.453Z,1011.816121652
2022-12-11T02:27:32.256Z,1011.816121652
2022-12-11T02:28:32.258Z,1011.7145302880001
2022-12-11T02:29:32.267Z,1011.816121652
2022-12-11T02:30:32.255Z,1011.51134756
2022-12-11T02:31:32.264Z,1011.7145302880001
2022-12-11T02:32:32.243Z,1011.816121652
2022-12-11T02:33:32.276Z,1011.612938924
2022-12-11T02:34:32.257Z,1011.612938924
2022-12-11T02:35:32.255Z,1011.7145302880001
2022-12-11T02:36:32.330Z,1011.51134756
2022-12-11T02:37:32.266Z,1011.612938924
2022-12-11T02:38:32.262Z,1011.612938924
2022-12-11T02:39:32.255Z,1011.612938924
2022-12-11T02:40:32.239Z,1011.612938924
2022-12-11T02:41:32.266Z,1011.7145302880001
2022-12-11T02:42:32.271Z,1011.7145302880001
2022-12-11T02:43:32.258Z,1011.612938924
2022-12-11T02:44:32.246Z,1011.612938924
2022-12-11T02:45:32.384Z,1011.816121652
2022-12-11T02:46:32.230Z,1011.7145302880001
2022-12-11T02:47:32.257Z,1011.7145302880001
2022-12-11T02:48:32.283Z,1011.816121652
2022-12-11T02:49:32.259Z,1011.7145302880001
2022-12-11T02:50:32.279Z,1011.7145302880001
2022-12-11T02:51:32.231Z,1011.612938924
2022-12-11T02:52:32.269Z,1011.612938924
2022-12-11T02:53:32.259Z,1011.7145302880001
2022-12-11T02:54:32.244Z,1011.7145302880001
2022-12-11T02:55:32.260Z,1011.51134756
2022-12-11T02:56:32.233Z,1011.51134756
2022-12-11T02:57:32.304Z,1011.7145302880001
2022-12-11T02:58:32.227Z,1011.612938924
2022-12-11T02:59:32.244Z,1011.7145302880001
2022-12-11T03:00:32.281Z,1011.816121652
2022-12-11T03:01:32.309Z,1011.816121652
2022-12-11T03:02:32.287Z,1011.51134756
2022-12-11T03:03:32.258Z,1011.7145302880001
2022-12-11T03:04:32.342Z,1011.612938924
2022-12-11T03:05:32.244Z,1011.7145302880001
2022-12-11T03:06:32.255Z,1011.51134756
2022-12-11T03:07:32.223Z,1011.409756196
2022-12-11T03:08:32.319Z,1011.816121652
2022-12-11T03:09:32.364Z,1011.51134756
2022-12-11T03:10:32.299Z,1011.51134756
2022-12-11T03:11:32.391Z,1011.7145302880001
2022-12-11T03:12:32.427Z,1011.612938924
2022-12-11T03:13:32.318Z,1011.51134756
2022-12-11T03:14:32.279Z,1011.409756196
2022-12-11T03:15:32.358Z,1011.409756196
2022-12-11T03:16:32.401Z,1011.7145302880001
2022-12-11T03:17:32.326Z,1011.51134756
2022-12-11T03:18:32.406Z,1011.51134756
2022-12-11T03:19:32.252Z,1011.612938924
2022-12-11T03:20:32.417Z,1011.612938924
2022-12-11T03:21:32.301Z,1011.612938924
2022-12-11T03:22:32.507Z,1011.7145302880001
2022-12-11T03:23:32.300Z,1011.51134756
2022-12-11T03:24:32.339Z,1011.51134756
2022-12-11T03:25:32.392Z,1011.7145302880001
2022-12-11T03:26:32.358Z,1011.7145302880001
2022-12-11T03:27:32.367Z,1011.612938924
2022-12-11T03:28:32.288Z,1011.51134756
2022-12-11T03:29:32.351Z,1011.51134756
2022-12-11T03:30:32.348Z,1011.612938924
2022-12-11T03:31:32.239Z,1011.409756196
2022-12-11T03:32:32.556Z,1011.7145302880001
2022-12-11T03:33:32.385Z,1011.7145302880001
2022-12-11T03:34:32.282Z,1011.7145302880001
2022-12-11T03:35:32.222Z,1011.7145302880001
2022-12-11T03:36:32.294Z,1011.816121652
2022-12-11T03:37:32.268Z,1011.7145302880001
2022-12-11T03:38:32.263Z,1011.612938924
2022-12-11T03:39:32.235Z,1011.612938924
2022-12-11T03:40:32.374Z,1011.816121652
2022-12-11T03:41:32.305Z,1011.612938924
2022-12-11T03:42:32.382Z,1011.816121652
2022-12-11T03:43:32.335Z,1011.9177130160001
2022-12-11T03:44:32.249Z,1011.7145302880001
2022-12-11T03:45:32.274Z,1011.816121652
2022-12-11T03:46:32.349Z,1011.7145302880001
2022-12-11T03:47:32.236Z,1011.7145302880001
2022-12-11T03:48:32.241Z,1011.7145302880001
2022-12-11T03:49:32.240Z,1011.7145302880001
2022-12-11T03:50:32.234Z,1011.816121652
2022-12-11T03:51:32.219Z,1011.7145302880001
2022-12-11T03:52:32.249Z,1011.7145302880001
2022-12-11T03:53:32.257Z,1011.816121652
2022-12-11T03:54:32.264Z,1011.816121652
2022-12-11T03:55:32.254Z,1011.816121652
2022-12-11T03:56:32.226Z,1011.7145302880001
2022-12-11T03:57:32.231Z,1012.0193043800001
2022-12-11T03:58:32.363Z,1011.7145302880001
2022-12-11T03:59:32.259Z,1011.9177130160001
2022-12-11T04:00:32.244Z,1011.816121652
2022-12-11T04:01:32.299Z,1011.816121652
2022-12-11T04:02:32.259Z,1011.7145302880001
2022-12-11T04:03:32.247Z,1011.816121652
2022-12-11T04:04:32.261Z,1012.120895744
2022-12-11T04:05:32.278Z,1011.7145302880001
2022-12-11T04:06:32.260Z,1012.0193043800001
2022-12-11T04:07:32.263Z,1012.0193043800001
2022-12-11T04:08:32.224Z,1011.816121652
2022-12-11T04:09:32.275Z,1011.816121652
2022-12-11T04:10:32.298Z,1011.816121652
2022-12-11T04:11:32.246Z,1012.0193043800001
2022-12-11T04:12:32.254Z,1011.816121652
2022-12-11T04:13:32.274Z,1011.7145302880001
2022-12-11T04:14:32.257Z,1011.9177130160001
2022-12-11T04:15:32.275Z,1011.9177130160001
2022-12-11T04:16:32.286Z,1011.9177130160001
2022-12-11T04:17:32.225Z,1011.7145302880001
2022-12-11T04:18:32.465Z,1011.7145302880001
2022-12-11T04:19:32.245Z,1012.0193043800001
2022-12-11T04:20:32.225Z,1011.7145302880001
2022-12-11T04:21:37.832Z,1012.120895744
2022-12-11T04:22:32.246Z,1011.7145302880001
2022-12-11T04:23:32.223Z,1011.9177130160001
2022-12-11T04:24:32.218Z,1011.9177130160001
2022-12-11T04:25:32.241Z,1011.9177130160001
2022-12-11T04:26:32.258Z,1011.9177130160001
2022-12-11T04:27:32.256Z,1012.0193043800001
2022-12-11T04:28:32.249Z,1012.120895744
2022-12-11T04:29:32.234Z,1011.9177130160001
2022-12-11T04:30:34.299Z,1012.120895744
2022-12-11T04:31:32.263Z,1012.0193043800001
2022-12-11T04:32:32.230Z,1012.0193043800001
2022-12-11T04:33:32.270Z,1011.9177130160001
2022-12-11T04:34:32.239Z,1011.9177130160001
2022-12-11T04:35:32.337Z,1011.816121652
2022-12-11T04:36:32.226Z,1011.7145302880001
2022-12-11T04:37:32.274Z,1011.9177130160001
2022-12-11T04:38:32.265Z,1011.9177130160001
2022-12-11T04:39:32.256Z,1011.612938924
2022-12-11T04:40:32.217Z,1012.0193043800001
2022-12-11T04:41:32.350Z,1012.0193043800001
2022-12-11T04:42:32.249Z,1011.9177130160001
2022-12-11T04:43:32.202Z,1012.0193043800001
2022-12-11T04:44:32.277Z,1011.9177130160001
2022-12-11T04:45:32.233Z,1012.0193043800001
2022-12-11T04:46:32.317Z,1011.9177130160001
2022-12-11T04:47:32.231Z,1011.9177130160001
2022-12-11T04:48:32.261Z,1012.120895744
2022-12-11T04:49:32.255Z,1011.9177130160001
2022-12-11T04:50:32.249Z,1012.120895744
2022-12-11T04:51:32.207Z,1012.0193043800001
2022-12-11T04:52:32.242Z,1011.816121652
2022-12-11T04:53:32.275Z,1011.9177130160001
2022-12-11T04:54:32.256Z,1012.120895744
2022-12-11T04:55:32.192Z,1012.120895744
2022-12-11T04:56:32.241Z,1011.816121652
2022-12-11T04:57:32.246Z,1011.816121652
2022-12-11T04:58:32.266Z,1012.0193043800001
2022-12-11T04:59:32.231Z,1011.816121652
2022-12-11T05:00:32.211Z,1012.120895744
2022-12-11T05:01:32.290Z,1012.324078472
2022-12-11T05:02:32.313Z,1012.120895744
2022-12-11T05:03:32.250Z,1012.0193043800001
2022-12-11T05:04:32.207Z,1012.0193043800001
2022-12-11T05:05:32.270Z,1012.2224871079999
2022-12-11T05:06:32.262Z,1012.120895744
2022-12-11T05:07:32.215Z,1012.0193043800001
2022-12-11T05:08:32.234Z,1012.2224871079999
2022-12-11T05:09:32.256Z,1012.120895744
2022-12-11T05:10:32.249Z,1012.0193043800001
2022-12-11T05:11:32.182Z,1012.0193043800001
2022-12-11T05:12:32.248Z,1012.0193043800001
2022-12-11T05:13:32.232Z,1012.0193043800001
2022-12-11T05:14:32.238Z,1012.2224871079999
2022-12-11T05:15:32.763Z,1012.4256698359999
2022-12-11T05:16:32.224Z,1012.2224871079999
2022-12-11T05:17:32.285Z,1012.2224871079999
2022-12-11T05:18:32.223Z,1012.2224871079999
2022-12-11T05:19:32.287Z,1012.2224871079999
2022-12-11T05:20:32.239Z,1012.324078472
2022-12-11T05:21:35.226Z,1012.2224871079999
2022-12-11T05:22:32.245Z,1012.2224871079999
2022-12-11T05:23:32.285Z,1012.4256698359999
2022-12-11T05:24:32.248Z,1012.324078472
2022-12-11T05:25:32.237Z,1012.2224871079999
2022-12-11T05:26:32.251Z,1012.120895744
2022-12-11T05:27:32.214Z,1012.324078472
2022-12-11T05:28:32.214Z,1012.324078472
2022-12-11T05:29:32.243Z,1012.324078472
2022-12-11T05:30:32.258Z,1012.2224871079999
2022-12-11T05:31:32.289Z,1012.324078472
2022-12-11T05:32:32.226Z,1012.2224871079999
2022-12-11T05:33:32.251Z,1012.4256698359999
2022-12-11T05:34:32.229Z,1012.324078472
2022-12-11T05:35:32.229Z,1012.324078472
2022-12-11T05:36:32.226Z,1012.324078472
2022-12-11T05:37:32.228Z,1012.2224871079999
2022-12-11T05:38:32.315Z,1012.324078472
2022-12-11T05:39:32.218Z,1012.324078472
2022-12-11T05:40:32.232Z,1012.4256698359999
2022-12-11T05:41:32.236Z,1012.2224871079999
2022-12-11T05:42:32.245Z,1012.324078472
2022-12-11T05:43:32.223Z,1012.324078472
2022-12-11T05:44:32.232Z,1012.324078472
2022-12-11T05:45:32.357Z,1012.2224871079999
2022-12-11T05:46:32.312Z,1012.324078472
2022-12-11T05:47:32.224Z,1012.2224871079999
2022-12-11T05:48:32.356Z,1012.4256698359999
2022-12-11T05:49:32.233Z,1012.5272611999999
2022-12-11T05:50:32.258Z,1012.324078472
2022-12-11T05:51:32.199Z,1012.2224871079999
2022-12-11T05:52:32.227Z,1012.4256698359999
2022-12-11T05:53:32.219Z,1012.2224871079999
2022-12-11T05:54:32.288Z,1012.324078472
2022-12-11T05:55:32.222Z,1012.324078472
2022-12-11T05:56:32.236Z,1012.4256698359999
2022-12-11T05:57:32.241Z,1012.324078472
2022-12-11T05:58:32.233Z,1012.324078472
2022-12-11T05:59:32.224Z,1012.324078472
2022-12-11T06:00:35.844Z,1012.5272611999999
2022-12-11T06:01:32.244Z,1012.4256698359999
2022-12-11T06:02:32.396Z,1012.628852564
2022-12-11T06:03:32.203Z,1012.5272611999999
2022-12-11T06:04:32.239Z,1012.628852564
2022-12-11T06:05:32.232Z,1012.628852564
2022-12-11T06:06:32.242Z,1012.5272611999999
2022-12-11T06:07:32.234Z,1012.628852564
2022-12-11T06:08:32.256Z,1012.324078472
2022-12-11T06:09:32.272Z,1012.628852564
2022-12-11T06:10:32.252Z,1012.4256698359999
2022-12-11T06:11:32.230Z,1012.5272611999999
2022-12-11T06:12:32.228Z,1012.7304439279999
2022-12-11T06:13:32.388Z,1012.5272611999999
2022-12-11T06:14:32.300Z,1012.628852564
2022-12-11T06:15:32.230Z,1012.5272611999999
2022-12-11T06:16:32.308Z,1012.4256698359999
2022-12-11T06:17:32.205Z,1012.4256698359999
2022-12-11T06:18:32.301Z,1012.5272611999999
2022-12-11T06:19:36.784Z,1012.628852564
2022-12-11T06:20:32.195Z,1012.7304439279999
2022-12-11T06:21:32.214Z,1012.5272611999999
2022-12-11T06:22:32.243Z,1012.628852564
2022-12-11T06:23:32.260Z,1012.5272611999999
2022-12-11T06:24:32.226Z,1012.5272611999999
2022-12-11T06:25:32.257Z,1012.628852564
2022-12-11T06:26:32.309Z,1012.8320352919999
2022-12-11T06:27:32.241Z,1012.628852564
2022-12-11T06:28:32.300Z,1012.628852564
2022-12-11T06:29:32.217Z,1012.7304439279999
2022-12-11T06:30:38.273Z,1012.628852564
2022-12-11T06:31:32.241Z,1012.933626656
2022-12-11T06:32:32.381Z,1012.7304439279999
2022-12-11T06:33:32.276Z,1012.7304439279999
2022-12-11T06:34:32.249Z,1012.8320352919999
2022-12-11T06:35:35.039Z,1012.628852564
2022-12-11T06:36:32.203Z,1012.7304439279999
2022-12-11T06:37:32.467Z,1012.7304439279999
2022-12-11T06:38:32.251Z,1012.8320352919999
2022-12-11T06:39:32.247Z,1012.7304439279999
2022-12-11T06:40:32.213Z,1012.8320352919999
2022-12-11T06:41:32.216Z,1012.7304439279999
2022-12-11T06:42:32.288Z,1012.8320352919999
2022-12-11T06:43:32.270Z,1012.933626656
2022-12-11T06:44:32.288Z,1012.8320352919999
2022-12-11T06:45:32.251Z,1012.8320352919999
2022-12-11T06:46:32.300Z,1012.8320352919999
2022-12-11T06:47:32.258Z,1012.7304439279999
2022-12-11T06:48:32.562Z,1012.8320352919999
2022-12-11T06:49:32.181Z,1012.933626656
2022-12-11T06:50:32.366Z,1012.628852564
2022-12-11T06:51:32.250Z,1012.933626656
2022-12-11T06:52:32.228Z,1012.7304439279999
2022-12-11T06:53:32.237Z,1013.03521802
2022-12-11T06:54:32.240Z,1012.7304439279999
2022-12-11T06:55:32.248Z,1012.8320352919999
2022-12-11T06:56:32.234Z,1012.8320352919999
2022-12-11T06:57:32.240Z,1013.1368093839999
2022-12-11T06:58:32.236Z,1012.8320352919999
2022-12-11T06:59:32.233Z,1012.933626656
2022-12-11T07:00:33.653Z,1013.03521802
2022-12-11T07:01:40.688Z,1012.933626656
2022-12-11T07:02:44.604Z,1012.8320352919999
2022-12-11T07:03:48.555Z,1012.8320352919999
2022-12-11T07:04:55.279Z,1013.1368093839999
2022-12-11T07:05:56.525Z,1013.03521802
2022-12-11T07:07:00.638Z,1012.933626656
2022-12-11T07:08:04.608Z,1012.8320352919999
2022-12-11T07:09:08.562Z,1013.1368093839999
2022-12-11T07:10:12.553Z,1013.03521802
2022-12-11T07:11:16.597Z,1013.03521802
2022-12-11T07:12:20.552Z,1013.03521802
2022-12-11T07:13:24.543Z,1013.238400748
2022-12-11T07:14:28.529Z,1012.933626656
2022-12-11T07:15:34.380Z,1012.933626656
2022-12-11T07:16:32.289Z,1012.7304439279999
2022-12-11T07:17:32.219Z,1013.1368093839999
2022-12-11T07:18:32.191Z,1012.933626656
2022-12-11T07:19:32.235Z,1012.933626656
2022-12-11T07:20:32.226Z,1013.03521802
2022-12-11T07:21:32.222Z,1013.1368093839999
2022-12-11T07:22:32.216Z,1013.03521802
2022-12-11T07:23:32.238Z,1012.933626656
2022-12-11T07:24:32.221Z,1012.933626656
2022-12-11T07:25:32.217Z,1013.1368093839999
2022-12-11T07:26:32.258Z,1013.03521802
2022-12-11T07:27:32.245Z,1013.03521802
2022-12-11T07:28:32.211Z,1013.1368093839999
2022-12-11T07:29:32.216Z,1012.933626656
2022-12-11T07:30:32.231Z,1013.1368093839999
2022-12-11T07:31:32.281Z,1013.1368093839999
2022-12-11T07:32:32.348Z,1013.1368093839999
2022-12-11T07:33:32.230Z,1013.238400748
2022-12-11T07:34:32.223Z,1013.1368093839999
2022-12-11T07:35:32.260Z,1013.1368093839999
2022-12-11T07:36:32.230Z,1013.1368093839999
2022-12-11T07:37:32.228Z,1013.238400748
2022-12-11T07:38:32.203Z,1013.1368093839999
2022-12-11T07:39:32.331Z,1013.1368093839999
2022-12-11T07:40:32.199Z,1013.238400748
2022-12-11T07:41:32.296Z,1013.1368093839999
2022-12-11T07:42:32.217Z,1013.238400748
2022-12-11T07:43:32.372Z,1013.238400748
2022-12-11T07:44:32.207Z,1013.1368093839999
2022-12-11T07:45:32.219Z,1013.339992112
2022-12-11T07:46:32.349Z,1013.1368093839999
2022-12-11T07:47:32.226Z,1013.1368093839999
2022-12-11T07:48:32.195Z,1013.339992112
2022-12-11T07:49:32.241Z,1013.1368093839999
2022-12-11T07:50:35.187Z,1013.1368093839999
2022-12-11T07:51:32.262Z,1013.339992112
2022-12-11T07:52:32.189Z,1013.238400748
2022-12-11T07:53:32.236Z,1013.238400748
2022-12-11T07:54:32.250Z,1013.1368093839999
2022-12-11T07:55:32.206Z,1013.4077196879999
2022-12-11T07:56:32.216Z,1013.238400748
2022-12-11T07:57:32.240Z,1013.1368093839999
2022-12-11T07:58:32.245Z,1013.03521802
2022-12-11T07:59:32.291Z,1013.03521802
2022-12-11T08:00:32.203Z,1013.238400748
2022-12-11T08:01:32.269Z,1013.339992112
2022-12-11T08:02:37.023Z,1013.238400748
2022-12-11T08:03:32.258Z,1013.238400748
2022-12-11T08:04:32.196Z,1013.339992112
2022-12-11T08:05:32.202Z,1013.339992112
2022-12-11T08:06:32.207Z,1013.339992112
2022-12-11T08:07:32.207Z,1013.238400748
2022-12-11T08:08:32.224Z,1013.339992112
2022-12-11T08:09:32.295Z,1013.1368093839999
2022-12-11T08:10:32.220Z,1013.339992112
2022-12-11T08:11:32.255Z,1013.238400748
2022-12-11T08:12:32.185Z,1013.238400748
2022-12-11T08:13:32.231Z,1013.339992112
2022-12-11T08:14:32.288Z,1013.339992112
2022-12-11T08:15:32.598Z,1013.4077196879999
2022-12-11T08:16:32.224Z,1013.5093110519999
2022-12-11T08:17:36.646Z,1013.4077196879999
2022-12-11T08:18:32.197Z,1013.4077196879999
2022-12-11T08:19:32.226Z,1013.339992112
2022-12-11T08:20:32.225Z,1013.339992112
2022-12-11T08:21:32.189Z,1013.4077196879999
2022-12-11T08:22:32.204Z,1013.238400748
2022-12-11T08:23:32.211Z,1013.238400748
2022-12-11T08:24:32.235Z,1013.4077196879999
2022-12-11T08:25:32.190Z,1013.339992112
2022-12-11T08:26:32.230Z,1013.339992112
2022-12-11T08:27:32.243Z,1013.238400748
2022-12-11T08:28:32.307Z,1013.339992112
2022-12-11T08:29:32.202Z,1013.339992112
2022-12-11T08:30:32.262Z,1013.5093110519999
2022-12-11T08:31:32.221Z,1013.4077196879999
2022-12-11T08:32:32.241Z,1013.4077196879999
2022-12-11T08:33:32.240Z,1013.339992112
2022-12-11T08:34:32.209Z,1013.339992112
2022-12-11T08:35:32.236Z,1013.4077196879999
2022-12-11T08:36:32.216Z,1013.5093110519999
2022-12-11T08:37:32.240Z,1013.339992112
2022-12-11T08:38:32.214Z,1013.339992112
2022-12-11T08:39:32.367Z,1013.6109024159999
2022-12-11T08:40:32.277Z,1013.6109024159999
2022-12-11T08:41:32.203Z,1013.5093110519999
2022-12-11T08:42:32.210Z,1013.6109024159999
2022-12-11T08:43:32.225Z,1013.5093110519999
2022-12-11T08:44:32.238Z,1013.6109024159999
2022-12-11T08:45:32.199Z,1013.7124937799999
2022-12-11T08:46:32.311Z,1013.5093110519999
2022-12-11T08:47:32.211Z,1013.6109024159999
2022-12-11T08:48:32.226Z,1013.5093110519999
2022-12-11T08:49:34.570Z,1013.4077196879999
2022-12-11T08:50:32.214Z,1013.5093110519999
2022-12-11T08:51:32.221Z,1013.5093110519999
2022-12-11T08:52:32.242Z,1013.4077196879999
2022-12-11T08:53:32.220Z,1013.7124937799999
2022-12-11T08:54:32.273Z,1013.5093110519999
2022-12-11T08:55:32.222Z,1013.6109024159999
2022-12-11T08:56:32.222Z,1013.7124937799999
2022-12-11T08:57:32.203Z,1013.9156765079999
2022-12-11T08:58:32.212Z,1013.7124937799999
2022-12-11T08:59:32.378Z,1014.0172678719999
2022-12-11T09:00:32.241Z,1013.7124937799999
2022-12-11T09:01:32.288Z,1013.7124937799999
2022-12-11T09:02:32.308Z,1013.6109024159999
2022-12-11T09:03:32.214Z,1013.9156765079999
2022-12-11T09:04:32.223Z,1013.9156765079999
2022-12-11T09:05:32.211Z,1013.5093110519999
2022-12-11T09:06:32.130Z,1013.5093110519999
2022-12-11T09:07:32.258Z,1013.4077196879999
2022-12-11T09:08:32.231Z,1013.5093110519999
2022-12-11T09:09:32.238Z,1013.5093110519999
2022-12-11T09:10:32.270Z,1013.7124937799999
2022-12-11T09:11:32.265Z,1013.6109024159999
2022-12-11T09:12:32.213Z,1013.5093110519999
2022-12-11T09:13:32.209Z,1013.5093110519999
2022-12-11T09:14:32.250Z,1013.339992112
2022-12-11T09:15:32.325Z,1013.6109024159999
2022-12-11T09:16:32.152Z,1013.6109024159999
2022-12-11T09:17:32.252Z,1013.5093110519999
2022-12-11T09:18:32.180Z,1013.339992112
2022-12-11T09:19:32.626Z,1013.5093110519999
2022-12-11T09:20:32.246Z,1013.4077196879999
2022-12-11T09:21:32.192Z,1013.4077196879999
2022-12-11T09:22:32.236Z,1013.5093110519999
2022-12-11T09:23:32.296Z,1013.6109024159999
2022-12-11T09:24:32.211Z,1013.4077196879999
2022-12-11T09:25:32.356Z,1013.6109024159999
2022-12-11T09:26:32.278Z,1013.5093110519999
2022-12-11T09:27:32.221Z,1013.6109024159999
2022-12-11T09:28:32.342Z,1013.6109024159999
2022-12-11T09:29:32.218Z,1013.339992112
2022-12-11T09:30:32.375Z,1013.339992112
2022-12-11T09:31:32.275Z,1013.339992112
2022-12-11T09:32:32.244Z,1013.4077196879999
2022-12-11T09:33:32.246Z,1013.5093110519999
2022-12-11T09:34:32.209Z,1013.6109024159999